createdAt,value
2023-04-02T00:00:10.652Z,66.92
2023-04-02T00:03:22.097Z,67.22
2023-04-02T00:06:33.029Z,67.29
2023-04-02T00:09:37.966Z,66.88
2023-04-02T00:12:40.642Z,67.06
2023-04-02T00:15:46.432Z,67.46
2023-04-02T00:18:53.802Z,67.24
2023-04-02T00:21:57.882Z,67.70
2023-04-02T00:25:07.817Z,67.42
2023-04-02T00:28:15.644Z,67.01
2023-04-02T00:31:20.359Z,66.48
2023-04-02T00:34:22.762Z,66.64
2023-04-02T00:37:28.677Z,66.17
2023-04-02T00:40:31.991Z,66.01
2023-04-02T00:43:37.082Z,65.74
2023-04-02T00:46:49.581Z,65.98
2023-04-02T00:49:59.781Z,65.65
2023-04-02T00:53:10.432Z,65.79
2023-04-02T00:56:36.862Z,65.70
2023-04-02T00:59:51.023Z,65.84
2023-04-02T01:03:16.473Z,66.15
2023-04-02T01:06:20.566Z,66.56
2023-04-02T01:09:37.715Z,66.49
2023-04-02T01:13:08.204Z,66.69
2023-04-02T01:16:38.992Z,66.70
2023-04-02T01:19:55.046Z,66.47
2023-04-02T01:23:00.631Z,66.13
2023-04-02T01:26:21.589Z,65.97
2023-04-02T01:29:32.458Z,66.76
2023-04-02T01:32:36.203Z,66.62
2023-04-02T01:35:46.779Z,66.98
2023-04-02T01:39:02.252Z,66.74
2023-04-02T01:42:36.304Z,67.42
2023-04-02T01:45:38.795Z,67.32
2023-04-02T01:48:42.558Z,67.45
2023-04-02T01:51:50.852Z,67.72
2023-04-02T01:54:54.509Z,67.29
2023-04-02T01:57:59.318Z,67.22
2023-04-02T02:01:09.831Z,67.08
2023-04-02T02:04:15.446Z,67.26
2023-04-02T02:07:20.841Z,66.97
2023-04-02T02:10:39.154Z,67.30
2023-04-02T02:13:53.191Z,66.90
2023-04-02T02:17:00.135Z,67.69
2023-04-02T02:20:10.877Z,66.74
2023-04-02T02:23:14.429Z,66.42
2023-04-02T02:26:18.941Z,66.30
2023-04-02T02:29:26.378Z,66.41
2023-04-02T02:32:32.688Z,66.58
2023-04-02T02:36:18.457Z,66.51
2023-04-02T02:39:34.848Z,66.58
2023-04-02T02:42:48.947Z,66.87
2023-04-02T02:45:54.102Z,66.84
2023-04-02T02:48:58.683Z,67.11
2023-04-02T02:52:13.503Z,67.34
2023-04-02T02:55:32.625Z,67.31
2023-04-02T02:58:42.753Z,67.78
2023-04-02T03:02:00.750Z,67.75
2023-04-02T03:05:04.956Z,68.08
2023-04-02T03:08:13.694Z,68.44
2023-04-02T03:11:29.184Z,68.16
2023-04-02T03:14:38.045Z,68.05
2023-04-02T03:18:13.397Z,68.28
2023-04-02T03:21:31.942Z,68.21
2023-04-02T03:24:46.688Z,68.24
2023-04-02T03:27:54.286Z,68.75
2023-04-02T03:31:06.076Z,68.72
2023-04-02T03:34:18.589Z,68.67
2023-04-02T03:37:26.261Z,68.83
2023-04-02T03:40:34.797Z,69.05
2023-04-02T03:43:43.528Z,69.26
2023-04-02T03:46:57.392Z,69.21
2023-04-02T03:50:26.797Z,69.65
2023-04-02T03:53:32.667Z,69.71
2023-04-02T03:56:40.412Z,69.73
2023-04-02T03:59:59.294Z,70.16
2023-04-02T04:03:12.432Z,70.43
2023-04-02T04:06:28.185Z,70.32
2023-04-02T04:09:39.374Z,69.93
2023-04-02T04:12:46.298Z,69.65
2023-04-02T04:16:00.470Z,69.45
2023-04-02T04:19:55.047Z,69.75
2023-04-02T04:23:11.134Z,70.08
2023-04-02T04:26:26.211Z,70.06
2023-04-02T04:29:45.522Z,70.56
2023-04-02T04:32:58.614Z,70.61
2023-04-02T04:36:03.825Z,70.69
2023-04-02T04:39:23.496Z,70.59
2023-04-02T04:42:31.878Z,71.10
2023-04-02T04:45:44.995Z,71.00
2023-04-02T04:49:21.571Z,71.00
2023-04-02T04:52:36.643Z,70.92
2023-04-02T04:55:44.435Z,70.91
2023-04-02T04:58:50.902Z,70.88
2023-04-02T05:02:02.212Z,70.51
2023-04-02T05:05:16.893Z,70.40
2023-04-02T05:08:30.551Z,70.20
2023-04-02T05:11:42.941Z,69.90
2023-04-02T05:14:58.390Z,69.86
2023-04-02T05:18:37.782Z,70.23
2023-04-02T05:21:44.034Z,69.72
2023-04-02T05:24:50.659Z,69.42
2023-04-02T05:27:59.229Z,68.88
2023-04-02T05:31:08.491Z,68.94
2023-04-02T05:34:13.277Z,68.26
2023-04-02T05:37:29.485Z,67.51
2023-04-02T05:40:42.365Z,66.95
2023-04-02T05:43:48.318Z,66.83
2023-04-02T05:47:06.739Z,66.51
2023-04-02T05:50:12.482Z,65.84
2023-04-02T05:53:49.932Z,65.52
2023-04-02T05:56:57.995Z,65.26
2023-04-02T06:00:07.222Z,65.18
2023-04-02T06:03:41.832Z,64.44
2023-04-02T06:06:50.648Z,64.35
2023-04-02T06:10:10.249Z,62.69
2023-04-02T06:13:19.747Z,63.40
2023-04-02T06:16:27.075Z,63.61
2023-04-02T06:19:35.802Z,63.22
2023-04-02T06:22:41.883Z,62.60
2023-04-02T06:26:06.347Z,61.70
2023-04-02T06:29:31.625Z,62.66
2023-04-02T06:32:34.878Z,62.30
2023-04-02T06:35:41.391Z,63.10
2023-04-02T06:38:44.596Z,62.60
2023-04-02T06:41:58.772Z,62.24
2023-04-02T06:45:25.667Z,61.49
2023-04-02T06:49:14.124Z,60.55
2023-04-02T06:52:26.141Z,59.60
2023-04-02T06:55:32.046Z,59.02
2023-04-02T06:58:35.162Z,58.50
2023-04-02T07:01:45.288Z,57.24
2023-04-02T07:04:48.821Z,56.08
2023-04-02T07:07:53.314Z,55.24
2023-04-02T07:10:56.893Z,54.21
2023-04-02T07:14:00.706Z,53.68
2023-04-02T07:17:03.669Z,53.27
2023-04-02T07:20:06.929Z,52.99
2023-04-02T07:23:10.413Z,52.78
2023-04-02T07:26:16.179Z,52.69
2023-04-02T07:29:19.954Z,52.76
2023-04-02T07:32:22.381Z,52.54
2023-04-02T07:35:24.903Z,54.02
2023-04-02T07:38:27.594Z,54.62
2023-04-02T07:41:30.178Z,55.32
2023-04-02T07:44:32.657Z,54.87
2023-04-02T07:47:35.439Z,55.25
2023-04-02T07:50:38.508Z,55.62
2023-04-02T07:53:41.878Z,56.03
2023-04-02T07:56:44.429Z,56.07
2023-04-02T07:59:47.472Z,56.74
2023-04-02T08:02:51.237Z,56.54
2023-04-02T08:05:56.315Z,56.75
2023-04-02T08:08:59.429Z,56.59
2023-04-02T08:12:02.197Z,55.80
2023-04-02T08:15:08.940Z,56.26
2023-04-02T08:18:12.215Z,55.80
2023-04-02T08:21:16.554Z,55.61
2023-04-02T08:24:19.962Z,55.38
2023-04-02T08:27:24.022Z,54.84
2023-04-02T08:30:27.145Z,53.99
2023-04-02T08:33:29.658Z,52.59
2023-04-02T08:36:38.398Z,51.81
2023-04-02T08:39:41.361Z,50.59
2023-04-02T08:43:16.145Z,48.83
2023-04-02T08:46:40.913Z,45.75
2023-04-02T08:49:52.478Z,45.11
2023-04-02T08:52:55.190Z,45.75
2023-04-02T08:56:17.993Z,43.72
2023-04-02T08:59:36.070Z,42.77
2023-04-02T09:02:43.509Z,42.96
2023-04-02T09:05:47.842Z,43.90
2023-04-02T09:08:51.970Z,44.54
2023-04-02T09:12:04.437Z,45.83
2023-04-02T09:15:26.048Z,46.40
2023-04-02T09:18:32.134Z,45.69
2023-04-02T09:21:40.863Z,45.08
2023-04-02T09:24:43.461Z,45.96
2023-04-02T09:27:49.967Z,46.52
2023-04-02T09:31:01.652Z,46.65
2023-04-02T09:34:31.320Z,46.03
2023-04-02T09:37:34.163Z,46.03
2023-04-02T09:40:51.484Z,44.96
2023-04-02T09:44:22.241Z,44.77
2023-04-02T09:47:27.336Z,44.95
2023-04-02T09:50:33.838Z,43.66
2023-04-02T09:53:41.836Z,43.97
2023-04-02T09:57:03.465Z,44.35
2023-04-02T10:00:21.860Z,44.05
2023-04-02T10:03:33.247Z,45.44
2023-04-02T10:06:35.725Z,44.39
2023-04-02T10:09:38.937Z,42.44
2023-04-02T10:12:43.596Z,43.54
2023-04-02T10:15:57.312Z,43.60
2023-04-02T10:19:17.843Z,44.89
2023-04-02T10:22:22.905Z,44.36
2023-04-02T10:25:30.314Z,44.92
2023-04-02T10:28:44.821Z,43.92
2023-04-02T10:31:53.399Z,42.46
2023-04-02T10:35:19.537Z,38.41
2023-04-02T10:38:28.644Z,36.97
2023-04-02T10:42:01.916Z,34.49
2023-04-02T10:45:38.654Z,33.04
2023-04-02T10:48:52.568Z,35.48
2023-04-02T10:52:00.698Z,30.45
2023-04-02T10:55:15.077Z,30.34
2023-04-02T10:58:24.298Z,27.84
2023-04-02T11:01:29.807Z,28.54
2023-04-02T11:04:42.511Z,30.95
2023-04-02T11:08:14.022Z,30.70
2023-04-02T11:11:21.497Z,28.05
2023-04-02T11:14:27.694Z,26.96
2023-04-02T11:17:30.401Z,23.38
2023-04-02T11:20:48.787Z,23.90
2023-04-02T11:24:00.936Z,20.58
2023-04-02T11:27:12.494Z,20.15
2023-04-02T11:30:27.698Z,19.00
2023-04-02T11:33:46.065Z,19.53
2023-04-02T11:36:52.957Z,20.90
2023-04-02T11:39:58.273Z,22.39
2023-04-02T11:43:32.495Z,21.91
2023-04-02T11:46:42.866Z,19.87
2023-04-02T11:50:06.233Z,21.01
2023-04-02T11:53:11.746Z,20.54
2023-04-02T11:56:34.142Z,19.05
2023-04-02T11:59:49.914Z,16.43
2023-04-02T12:03:13.447Z,20.00
2023-04-02T12:06:34.536Z,21.83
2023-04-02T12:09:56.892Z,21.92
2023-04-02T12:12:59.822Z,30.09
2023-04-02T12:16:03.368Z,33.13
2023-04-02T12:19:09.356Z,24.45
2023-04-02T12:22:28.595Z,23.37
2023-04-02T12:25:33.900Z,22.70
2023-04-02T12:28:38.271Z,23.33
2023-04-02T12:31:47.991Z,23.62
2023-04-02T12:34:53.208Z,21.18
2023-04-02T12:37:55.675Z,22.10
2023-04-02T12:41:06.674Z,22.64
2023-04-02T12:44:18.473Z,24.78
2023-04-02T12:47:21.163Z,25.24
2023-04-02T12:50:23.892Z,20.89
2023-04-02T12:53:34.879Z,20.33
2023-04-02T12:56:37.425Z,22.80
2023-04-02T12:59:40.949Z,20.39
2023-04-02T13:02:45.605Z,16.78
2023-04-02T13:05:52.641Z,19.39
2023-04-02T13:08:55.601Z,19.56
2023-04-02T13:11:58.814Z,25.36
2023-04-02T13:15:04.171Z,23.48
2023-04-02T13:18:12.611Z,22.61
2023-04-02T13:21:15.439Z,18.85
2023-04-02T13:24:23.824Z,16.84
2023-04-02T13:27:26.224Z,18.82
2023-04-02T13:30:29.484Z,19.26
2023-04-02T13:33:32.413Z,17.01
2023-04-02T13:36:35.040Z,17.53
2023-04-02T13:39:37.407Z,21.37
2023-04-02T13:42:42.110Z,19.64
2023-04-02T13:45:50.604Z,19.14
2023-04-02T13:48:54.840Z,18.38
2023-04-02T13:52:05.426Z,17.50
2023-04-02T13:55:10.313Z,17.92
2023-04-02T13:58:13.220Z,17.32
2023-04-02T14:01:16.095Z,16.78
2023-04-02T14:04:24.556Z,24.02
2023-04-02T14:07:59.458Z,19.72
2023-04-02T14:11:27.107Z,19.56
2023-04-02T14:14:32.772Z,21.07
2023-04-02T14:17:47.628Z,25.97
2023-04-02T14:21:17.405Z,29.19
2023-04-02T14:24:58.551Z,33.62
2023-04-02T14:28:11.912Z,34.64
2023-04-02T14:31:43.492Z,30.95
2023-04-02T14:34:54.775Z,27.49
2023-04-02T14:38:40.597Z,25.89
2023-04-02T14:41:52.504Z,26.35
2023-04-02T14:45:03.972Z,34.39
2023-04-02T14:48:38.575Z,38.47
2023-04-02T14:52:04.528Z,40.45
2023-04-02T14:55:26.385Z,43.48
2023-04-02T14:58:34.541Z,48.92
2023-04-02T15:01:43.347Z,51.55
2023-04-02T15:05:01.433Z,53.73
2023-04-02T15:08:39.431Z,56.07
2023-04-02T15:11:48.876Z,58.04
2023-04-02T15:14:59.198Z,57.75
2023-04-02T15:18:02.537Z,57.31
2023-04-02T15:21:20.240Z,56.31
2023-04-02T15:24:37.263Z,56.34
2023-04-02T15:27:39.711Z,56.51
2023-04-02T15:30:44.276Z,57.97
2023-04-02T15:34:01.765Z,59.50
2023-04-02T15:37:12.742Z,63.46
2023-04-02T15:40:35.300Z,64.98
2023-04-02T15:43:39.095Z,66.03
2023-04-02T15:46:55.505Z,62.48
2023-04-02T15:50:14.086Z,62.73
2023-04-02T15:53:34.925Z,64.61
2023-04-02T15:57:09.422Z,62.13
2023-04-02T16:00:33.029Z,60.70
2023-04-02T16:03:49.557Z,60.32
2023-04-02T16:07:17.051Z,59.62
2023-04-02T16:10:40.218Z,59.33
2023-04-02T16:13:45.088Z,59.03
2023-04-02T16:16:50.481Z,59.16
2023-04-02T16:20:02.452Z,60.17
2023-04-02T16:23:20.613Z,60.26
2023-04-02T16:26:47.153Z,60.01
2023-04-02T16:30:20.234Z,56.50
2023-04-02T16:33:46.078Z,52.83
2023-04-02T16:37:19.393Z,52.63
2023-04-02T16:41:04.789Z,54.33
2023-04-02T16:44:28.768Z,52.41
2023-04-02T16:47:45.349Z,52.97
2023-04-02T16:51:09.150Z,53.94
2023-04-02T16:54:20.268Z,56.05
2023-04-02T16:57:56.605Z,58.82
2023-04-02T17:01:16.308Z,61.35
2023-04-02T17:04:46.562Z,62.14
2023-04-02T17:08:02.997Z,61.88
2023-04-02T17:11:12.612Z,64.27
2023-04-02T17:14:35.020Z,57.48
2023-04-02T17:17:37.877Z,57.09
2023-04-02T17:20:41.446Z,55.75
2023-04-02T17:24:06.674Z,55.99
2023-04-02T17:27:25.623Z,53.88
2023-04-02T17:30:31.207Z,55.45
2023-04-02T17:33:34.140Z,55.58
2023-04-02T17:36:48.435Z,56.52
2023-04-02T17:40:18.635Z,55.39
2023-04-02T17:43:40.363Z,55.50
2023-04-02T17:46:57.180Z,56.38
2023-04-02T17:50:48.627Z,58.34
2023-04-02T17:54:10.492Z,57.02
2023-04-02T17:57:52.255Z,56.36
2023-04-02T18:01:06.944Z,56.74
2023-04-02T18:04:27.990Z,57.32
2023-04-02T18:08:00.456Z,57.34
2023-04-02T18:11:02.934Z,57.92
2023-04-02T18:14:18.076Z,57.13
2023-04-02T18:17:33.214Z,57.87
2023-04-02T18:21:14.790Z,57.09
2023-04-02T18:24:46.499Z,58.42
2023-04-02T18:28:14.952Z,58.81
2023-04-02T18:31:49.390Z,58.46
2023-04-02T18:35:22.568Z,58.12
2023-04-02T18:38:40.546Z,59.83
2023-04-02T18:41:52.684Z,58.23
2023-04-02T18:45:19.051Z,58.78
2023-04-02T18:48:36.922Z,56.56
2023-04-02T18:51:40.367Z,57.49
2023-04-02T18:54:55.511Z,58.41
2023-04-02T18:58:04.064Z,58.79
2023-04-02T19:01:11.575Z,57.82
2023-04-02T19:04:28.644Z,56.89
2023-04-02T19:07:36.786Z,57.51
2023-04-02T19:10:43.965Z,56.93
2023-04-02T19:13:49.004Z,55.05
2023-04-02T19:17:09.733Z,56.64
2023-04-02T19:20:26.944Z,56.15
2023-04-02T19:23:38.501Z,54.95
2023-04-02T19:27:27.211Z,55.94
2023-04-02T19:31:01.225Z,56.00
2023-04-02T19:34:34.207Z,56.18
2023-04-02T19:37:41.973Z,56.64
2023-04-02T19:41:07.008Z,57.40
2023-04-02T19:44:13.466Z,57.14
2023-04-02T19:47:18.630Z,57.32
2023-04-02T19:50:21.593Z,57.80
2023-04-02T19:53:24.426Z,58.22
2023-04-02T19:56:28.183Z,57.78
2023-04-02T19:59:31.077Z,57.97
2023-04-02T20:02:34.012Z,58.01
2023-04-02T20:05:37.095Z,59.15
2023-04-02T20:08:40.192Z,59.28
2023-04-02T20:11:43.014Z,60.04
2023-04-02T20:14:45.727Z,59.88
2023-04-02T20:17:48.400Z,60.44
2023-04-02T20:20:51.023Z,60.22
2023-04-02T20:23:54.455Z,60.43
2023-04-02T20:26:56.917Z,60.14
2023-04-02T20:29:59.720Z,60.83
2023-04-02T20:33:02.436Z,60.81
2023-04-02T20:36:08.545Z,61.27
2023-04-02T20:39:17.528Z,62.07
2023-04-02T20:42:20.069Z,61.81
2023-04-02T20:45:22.727Z,61.83
2023-04-02T20:48:30.907Z,61.91
2023-04-02T20:51:34.440Z,62.57
2023-04-02T20:54:37.042Z,63.24
2023-04-02T20:57:39.672Z,64.29
2023-04-02T21:00:42.388Z,64.37
2023-04-02T21:03:45.407Z,62.25
2023-04-02T21:06:48.675Z,62.80
2023-04-02T21:09:54.227Z,63.85
2023-04-02T21:12:56.679Z,64.81
2023-04-02T21:15:59.973Z,65.17
2023-04-02T21:19:05.960Z,66.66
2023-04-02T21:22:08.600Z,66.64
2023-04-02T21:25:11.133Z,65.87
2023-04-02T21:28:13.594Z,65.00
2023-04-02T21:31:19.363Z,65.10
2023-04-02T21:34:21.741Z,65.17
2023-04-02T21:37:24.218Z,63.37
2023-04-02T21:40:27.059Z,62.10
2023-04-02T21:43:29.432Z,62.03
2023-04-02T21:46:36.083Z,62.49
2023-04-02T21:49:38.879Z,61.83
2023-04-02T21:52:41.490Z,62.00
2023-04-02T21:55:44.055Z,62.81
2023-04-02T21:58:47.645Z,62.67
2023-04-02T22:01:52.070Z,62.41
2023-04-02T22:04:54.589Z,61.01
2023-04-02T22:07:57.059Z,60.06
2023-04-02T22:11:05.441Z,58.88
2023-04-02T22:14:08.574Z,58.94
2023-04-02T22:17:11.046Z,58.79
2023-04-02T22:20:13.752Z,59.19
2023-04-02T22:23:17.785Z,58.69
2023-04-02T22:26:23.169Z,59.03
2023-04-02T22:29:25.853Z,59.10
2023-04-02T22:32:28.377Z,59.01
2023-04-02T22:35:31.059Z,59.05
2023-04-02T22:38:34.852Z,59.75
2023-04-02T22:41:37.484Z,59.37
2023-04-02T22:44:40.270Z,58.55
2023-04-02T22:47:42.819Z,58.77
2023-04-02T22:50:50.479Z,58.42
2023-04-02T22:53:54.841Z,58.27
2023-04-02T22:56:57.336Z,58.87
2023-04-02T23:00:00.164Z,59.12
2023-04-02T23:03:03.169Z,58.93
2023-04-02T23:06:08.855Z,59.57
2023-04-02T23:09:11.434Z,59.09
2023-04-02T23:12:13.976Z,58.81
2023-04-02T23:15:17.133Z,60.11
2023-04-02T23:18:19.612Z,59.30
2023-04-02T23:21:22.782Z,59.54
2023-04-02T23:24:25.265Z,59.42
2023-04-02T23:27:27.811Z,59.79
2023-04-02T23:30:30.494Z,58.15
2023-04-02T23:33:33.556Z,58.12
2023-04-02T23:36:36.325Z,58.38
2023-04-02T23:39:39.093Z,58.40
2023-04-02T23:42:41.777Z,58.48
2023-04-02T23:45:50.671Z,57.14
2023-04-02T23:48:54.549Z,57.44
2023-04-02T23:51:58.310Z,57.47
2023-04-02T23:55:00.742Z,57.32
2023-04-02T23:58:04.076Z,56.98
